sensor_id;sensor_type;location;lat;lon;timestamp;P1;durP1;ratioP1;P2;durP2;ratioP2
82628;SDS011;72298;49.640;20.652;2023-10-08T00:01:07;5.07;;;2.58;;
82628;SDS011;72298;49.640;20.652;2023-10-08T00:03:39;5.72;;;2.70;;
82628;SDS011;72298;49.640;20.652;2023-10-08T00:08:39;8.25;;;3.20;;
82628;SDS011;72298;49.640;20.652;2023-10-08T00:11:05;6.50;;;3.03;;
82628;SDS011;72298;49.640;20.652;2023-10-08T00:13:32;5.97;;;2.50;;
82628;SDS011;72298;49.640;20.652;2023-10-08T00:16:08;4.90;;;2.80;;
82628;SDS011;72298;49.640;20.652;2023-10-08T00:18:35;4.80;;;2.47;;
82628;SDS011;72298;49.640;20.652;2023-10-08T00:21:03;7.05;;;3.22;;
82628;SDS011;72298;49.640;20.652;2023-10-08T00:23:38;5.45;;;2.70;;
82628;SDS011;72298;49.640;20.652;2023-10-08T00:26:20;6.90;;;3.00;;
82628;SDS011;72298;49.640;20.652;2023-10-08T00:29:05;11.32;;;3.47;;
82628;SDS011;72298;49.640;20.652;2023-10-08T00:31:40;6.50;;;2.58;;
82628;SDS011;72298;49.640;20.652;2023-10-08T00:34:06;5.25;;;2.70;;
82628;SDS011;72298;49.640;20.652;2023-10-08T00:36:37;5.75;;;3.03;;
82628;SDS011;72298;49.640;20.652;2023-10-08T00:39:03;5.63;;;3.13;;
82628;SDS011;72298;49.640;20.652;2023-10-08T00:41:33;7.15;;;2.83;;
82628;SDS011;72298;49.640;20.652;2023-10-08T00:43:59;7.25;;;3.20;;
82628;SDS011;72298;49.640;20.652;2023-10-08T00:46:26;7.55;;;2.97;;
82628;SDS011;72298;49.640;20.652;2023-10-08T00:48:58;13.70;;;3.15;;
82628;SDS011;72298;49.640;20.652;2023-10-08T00:51:36;10.05;;;3.70;;
82628;SDS011;72298;49.640;20.652;2023-10-08T00:54:06;9.82;;;2.83;;
82628;SDS011;72298;49.640;20.652;2023-10-08T00:56:34;9.20;;;2.75;;
82628;SDS011;72298;49.640;20.652;2023-10-08T00:59:25;6.25;;;2.92;;
82628;SDS011;72298;49.640;20.652;2023-10-08T01:01:51;11.35;;;3.22;;
82628;SDS011;72298;49.640;20.652;2023-10-08T01:04:32;8.52;;;3.08;;
82628;SDS011;72298;49.640;20.652;2023-10-08T01:07:03;6.57;;;2.97;;
82628;SDS011;72298;49.640;20.652;2023-10-08T01:09:38;4.75;;;2.50;;
82628;SDS011;72298;49.640;20.652;2023-10-08T01:12:11;8.88;;;3.58;;
82628;SDS011;72298;49.640;20.652;2023-10-08T01:14:42;7.15;;;3.03;;
82628;SDS011;72298;49.640;20.652;2023-10-08T01:17:11;6.57;;;3.28;;
82628;SDS011;72298;49.640;20.652;2023-10-08T01:19:44;7.85;;;3.03;;
82628;SDS011;72298;49.640;20.652;2023-10-08T01:22:16;9.27;;;2.60;;
82628;SDS011;72298;49.640;20.652;2023-10-08T01:24:50;8.85;;;3.35;;
82628;SDS011;72298;49.640;20.652;2023-10-08T01:27:16;7.50;;;2.60;;
82628;SDS011;72298;49.640;20.652;2023-10-08T01:29:49;9.27;;;3.30;;
82628;SDS011;72298;49.640;20.652;2023-10-08T01:32:16;13.32;;;3.63;;
82628;SDS011;72298;49.640;20.652;2023-10-08T01:34:43;10.55;;;4.50;;
82628;SDS011;72298;49.640;20.652;2023-10-08T01:37:18;8.13;;;3.83;;
82628;SDS011;72298;49.640;20.652;2023-10-08T01:39:47;10.10;;;3.28;;
82628;SDS011;72298;49.640;20.652;2023-10-08T01:42:15;9.10;;;3.58;;
82628;SDS011;72298;49.640;20.652;2023-10-08T01:44:46;7.88;;;3.30;;
82628;SDS011;72298;49.640;20.652;2023-10-08T01:47:13;8.00;;;3.78;;
82628;SDS011;72298;49.640;20.652;2023-10-08T01:49:40;5.78;;;3.22;;
82628;SDS011;72298;49.640;20.652;2023-10-08T01:52:08;11.65;;;3.80;;
82628;SDS011;72298;49.640;20.652;2023-10-08T01:54:39;9.00;;;3.25;;
82628;SDS011;72298;49.640;20.652;2023-10-08T01:57:05;7.05;;;3.92;;
82628;SDS011;72298;49.640;20.652;2023-10-08T01:59:34;8.00;;;4.10;;
82628;SDS011;72298;49.640;20.652;2023-10-08T02:01:59;8.52;;;4.00;;
82628;SDS011;72298;49.640;20.652;2023-10-08T02:04:25;8.73;;;3.55;;
82628;SDS011;72298;49.640;20.652;2023-10-08T02:06:51;9.07;;;3.55;;
82628;SDS011;72298;49.640;20.652;2023-10-08T02:09:16;7.65;;;3.65;;
82628;SDS011;72298;49.640;20.652;2023-10-08T02:11:48;8.45;;;3.28;;
82628;SDS011;72298;49.640;20.652;2023-10-08T02:14:18;8.07;;;3.75;;
82628;SDS011;72298;49.640;20.652;2023-10-08T02:19:24;4.25;;;2.33;;
82628;SDS011;72298;49.640;20.652;2023-10-08T02:21:53;2.35;;;1.52;;
82628;SDS011;72298;49.640;20.652;2023-10-08T02:24:20;0.80;;;0.70;;
82628;SDS011;72298;49.640;20.652;2023-10-08T02:26:50;1.65;;;0.68;;
82628;SDS011;72298;49.640;20.652;2023-10-08T02:29:20;0.38;;;0.38;;
82628;SDS011;72298;49.640;20.652;2023-10-08T02:31:47;0.47;;;0.20;;
82628;SDS011;72298;49.640;20.652;2023-10-08T02:34:14;0.47;;;0.47;;
82628;SDS011;72298;49.640;20.652;2023-10-08T02:36:40;0.22;;;0.22;;
82628;SDS011;72298;49.640;20.652;2023-10-08T02:39:06;0.40;;;0.40;;
82628;SDS011;72298;49.640;20.652;2023-10-08T02:41:46;1.85;;;0.45;;
82628;SDS011;72298;49.640;20.652;2023-10-08T02:44:13;0.20;;;0.20;;
82628;SDS011;72298;49.640;20.652;2023-10-08T02:46:43;0.20;;;0.20;;
82628;SDS011;72298;49.640;20.652;2023-10-08T02:49:12;0.65;;;0.63;;
82628;SDS011;72298;49.640;20.652;2023-10-08T02:51:42;0.68;;;0.60;;
82628;SDS011;72298;49.640;20.652;2023-10-08T02:54:10;0.77;;;0.70;;
82628;SDS011;72298;49.640;20.652;2023-10-08T02:56:46;0.47;;;0.47;;
82628;SDS011;72298;49.640;20.652;2023-10-08T02:59:16;0.40;;;0.40;;
82628;SDS011;72298;49.640;20.652;2023-10-08T03:01:42;0.40;;;0.40;;
82628;SDS011;72298;49.640;20.652;2023-10-08T03:04:10;0.40;;;0.40;;
82628;SDS011;72298;49.640;20.652;2023-10-08T03:06:48;0.00;;;0.00;;
82628;SDS011;72298;49.640;20.652;2023-10-08T03:09:15;0.40;;;0.40;;
82628;SDS011;72298;49.640;20.652;2023-10-08T03:11:55;1.60;;;0.45;;
82628;SDS011;72298;49.640;20.652;2023-10-08T03:14:20;0.40;;;0.40;;
82628;SDS011;72298;49.640;20.652;2023-10-08T03:16:49;0.47;;;0.47;;
82628;SDS011;72298;49.640;20.652;2023-10-08T03:19:19;3.83;;;0.43;;
82628;SDS011;72298;49.640;20.652;2023-10-08T03:21:47;0.63;;;0.47;;
82628;SDS011;72298;49.640;20.652;2023-10-08T03:24:17;0.70;;;0.50;;
82628;SDS011;72298;49.640;20.652;2023-10-08T03:26:58;0.52;;;0.50;;
82628;SDS011;72298;49.640;20.652;2023-10-08T03:29:48;3.95;;;0.63;;
82628;SDS011;72298;49.640;20.652;2023-10-08T03:32:14;0.60;;;0.60;;
82628;SDS011;72298;49.640;20.652;2023-10-08T03:34:49;0.65;;;0.65;;
82628;SDS011;72298;49.640;20.652;2023-10-08T03:37:16;0.35;;;0.30;;
82628;SDS011;72298;49.640;20.652;2023-10-08T03:39:46;0.60;;;0.60;;
82628;SDS011;72298;49.640;20.652;2023-10-08T03:42:22;0.57;;;0.57;;
82628;SDS011;72298;49.640;20.652;2023-10-08T03:44:51;0.38;;;0.38;;
82628;SDS011;72298;49.640;20.652;2023-10-08T03:47:18;0.82;;;0.82;;
82628;SDS011;72298;49.640;20.652;2023-10-08T03:49:46;0.70;;;0.70;;
82628;SDS011;72298;49.640;20.652;2023-10-08T03:52:16;0.65;;;0.65;;
82628;SDS011;72298;49.640;20.652;2023-10-08T03:54:44;0.63;;;0.60;;
82628;SDS011;72298;49.640;20.652;2023-10-08T03:57:14;0.50;;;0.50;;
82628;SDS011;72298;49.640;20.652;2023-10-08T03:59:50;0.63;;;0.52;;
82628;SDS011;72298;49.640;20.652;2023-10-08T04:02:20;0.32;;;0.32;;
82628;SDS011;72298;49.640;20.652;2023-10-08T04:04:56;0.40;;;0.40;;
82628;SDS011;72298;49.640;20.652;2023-10-08T04:07:23;0.25;;;0.25;;
82628;SDS011;72298;49.640;20.652;2023-10-08T04:09:59;0.20;;;0.20;;
82628;SDS011;72298;49.640;20.652;2023-10-08T04:12:34;0.38;;;0.38;;
82628;SDS011;72298;49.640;20.652;2023-10-08T04:15:03;0.22;;;0.22;;
82628;SDS011;72298;49.640;20.652;2023-10-08T04:17:35;0.25;;;0.25;;
82628;SDS011;72298;49.640;20.652;2023-10-08T04:20:19;0.38;;;0.35;;
82628;SDS011;72298;49.640;20.652;2023-10-08T04:23:20;0.30;;;0.30;;
82628;SDS011;72298;49.640;20.652;2023-10-08T04:25:48;0.60;;;0.52;;
82628;SDS011;72298;49.640;20.652;2023-10-08T04:28:22;0.50;;;0.35;;
82628;SDS011;72298;49.640;20.652;2023-10-08T04:30:53;1.27;;;0.70;;
82628;SDS011;72298;49.640;20.652;2023-10-08T04:33:26;0.70;;;0.57;;
82628;SDS011;72298;49.640;20.652;2023-10-08T04:35:52;0.70;;;0.63;;
82628;SDS011;72298;49.640;20.652;2023-10-08T04:38:22;0.77;;;0.77;;
82628;SDS011;72298;49.640;20.652;2023-10-08T04:40:49;0.52;;;0.52;;
82628;SDS011;72298;49.640;20.652;2023-10-08T04:43:20;0.30;;;0.30;;
82628;SDS011;72298;49.640;20.652;2023-10-08T04:45:53;0.60;;;0.60;;
82628;SDS011;72298;49.640;20.652;2023-10-08T04:48:22;0.60;;;0.40;;
82628;SDS011;72298;49.640;20.652;2023-10-08T04:50:57;0.45;;;0.43;;
82628;SDS011;72298;49.640;20.652;2023-10-08T04:53:24;3.55;;;0.50;;
82628;SDS011;72298;49.640;20.652;2023-10-08T04:56:00;5.13;;;0.70;;
82628;SDS011;72298;49.640;20.652;2023-10-08T04:58:41;0.45;;;0.45;;
82628;SDS011;72298;49.640;20.652;2023-10-08T05:01:09;1.13;;;0.80;;
82628;SDS011;72298;49.640;20.652;2023-10-08T05:03:49;0.57;;;0.45;;
82628;SDS011;72298;49.640;20.652;2023-10-08T05:06:25;0.95;;;0.80;;
82628;SDS011;72298;49.640;20.652;2023-10-08T05:09:08;0.52;;;0.30;;
82628;SDS011;72298;49.640;20.652;2023-10-08T05:11:36;0.70;;;0.65;;
82628;SDS011;72298;49.640;20.652;2023-10-08T05:14:12;0.80;;;0.50;;
82628;SDS011;72298;49.640;20.652;2023-10-08T05:16:56;0.50;;;0.50;;
82628;SDS011;72298;49.640;20.652;2023-10-08T05:19:29;0.85;;;0.73;;
82628;SDS011;72298;49.640;20.652;2023-10-08T05:22:04;1.27;;;0.68;;
82628;SDS011;72298;49.640;20.652;2023-10-08T05:24:48;0.77;;;0.68;;
82628;SDS011;72298;49.640;20.652;2023-10-08T05:27:39;1.77;;;0.90;;
82628;SDS011;72298;49.640;20.652;2023-10-08T05:32:43;0.63;;;0.47;;
82628;SDS011;72298;49.640;20.652;2023-10-08T05:35:30;1.10;;;0.80;;
82628;SDS011;72298;49.640;20.652;2023-10-08T05:38:08;3.33;;;1.00;;
82628;SDS011;72298;49.640;20.652;2023-10-08T05:40:53;1.75;;;0.85;;
82628;SDS011;72298;49.640;20.652;2023-10-08T05:43:36;1.83;;;1.13;;
82628;SDS011;72298;49.640;20.652;2023-10-08T05:49:04;3.92;;;0.82;;
82628;SDS011;72298;49.640;20.652;2023-10-08T05:51:33;2.42;;;1.05;;
82628;SDS011;72298;49.640;20.652;2023-10-08T05:54:18;1.67;;;0.57;;
82628;SDS011;72298;49.640;20.652;2023-10-08T05:59:49;0.60;;;0.60;;
82628;SDS011;72298;49.640;20.652;2023-10-08T06:02:21;2.20;;;1.00;;
82628;SDS011;72298;49.640;20.652;2023-10-08T06:07:39;2.30;;;1.10;;
82628;SDS011;72298;49.640;20.652;2023-10-08T06:10:21;1.40;;;0.95;;
82628;SDS011;72298;49.640;20.652;2023-10-08T06:15:51;2.58;;;0.75;;
82628;SDS011;72298;49.640;20.652;2023-10-08T06:18:21;4.60;;;1.60;;
82628;SDS011;72298;49.640;20.652;2023-10-08T06:20:52;3.58;;;1.55;;
82628;SDS011;72298;49.640;20.652;2023-10-08T06:23:21;1.58;;;1.10;;
82628;SDS011;72298;49.640;20.652;2023-10-08T06:25:49;4.90;;;1.20;;
82628;SDS011;72298;49.640;20.652;2023-10-08T06:28:22;4.55;;;1.98;;
82628;SDS011;72298;49.640;20.652;2023-10-08T06:30:51;2.75;;;1.45;;
82628;SDS011;72298;49.640;20.652;2023-10-08T06:33:22;2.90;;;1.50;;
82628;SDS011;72298;49.640;20.652;2023-10-08T06:35:50;3.17;;;1.27;;
82628;SDS011;72298;49.640;20.652;2023-10-08T06:38:31;2.15;;;1.52;;
82628;SDS011;72298;49.640;20.652;2023-10-08T06:41:02;2.13;;;1.20;;
82628;SDS011;72298;49.640;20.652;2023-10-08T06:43:38;1.77;;;1.08;;
82628;SDS011;72298;49.640;20.652;2023-10-08T06:46:03;2.25;;;1.10;;
82628;SDS011;72298;49.640;20.652;2023-10-08T06:48:32;2.67;;;1.27;;
82628;SDS011;72298;49.640;20.652;2023-10-08T06:51:00;3.33;;;1.25;;
82628;SDS011;72298;49.640;20.652;2023-10-08T06:53:46;2.35;;;1.20;;
82628;SDS011;72298;49.640;20.652;2023-10-08T06:56:13;2.08;;;1.20;;
82628;SDS011;72298;49.640;20.652;2023-10-08T06:58:40;7.20;;;1.40;;
82628;SDS011;72298;49.640;20.652;2023-10-08T07:01:13;1.33;;;0.95;;
82628;SDS011;72298;49.640;20.652;2023-10-08T07:03:46;3.20;;;1.33;;
82628;SDS011;72298;49.640;20.652;2023-10-08T07:06:14;3.97;;;2.05;;
82628;SDS011;72298;49.640;20.652;2023-10-08T07:08:51;8.35;;;3.03;;
82628;SDS011;72298;49.640;20.652;2023-10-08T07:11:21;5.90;;;2.25;;
82628;SDS011;72298;49.640;20.652;2023-10-08T07:13:47;6.57;;;3.25;;
82628;SDS011;72298;49.640;20.652;2023-10-08T07:16:13;2.75;;;1.77;;
82628;SDS011;72298;49.640;20.652;2023-10-08T07:18:43;14.27;;;6.57;;
82628;SDS011;72298;49.640;20.652;2023-10-08T07:21:20;7.85;;;2.83;;
82628;SDS011;72298;49.640;20.652;2023-10-08T07:23:53;5.07;;;2.63;;
82628;SDS011;72298;49.640;20.652;2023-10-08T07:26:24;7.65;;;2.13;;
82628;SDS011;72298;49.640;20.652;2023-10-08T07:29:01;3.25;;;2.50;;
82628;SDS011;72298;49.640;20.652;2023-10-08T07:31:33;5.55;;;1.60;;
82628;SDS011;72298;49.640;20.652;2023-10-08T07:34:01;6.30;;;1.85;;
82628;SDS011;72298;49.640;20.652;2023-10-08T07:36:45;7.40;;;2.45;;
82628;SDS011;72298;49.640;20.652;2023-10-08T07:39:14;5.57;;;2.60;;
82628;SDS011;72298;49.640;20.652;2023-10-08T07:41:55;5.70;;;1.70;;
82628;SDS011;72298;49.640;20.652;2023-10-08T07:44:22;3.70;;;1.65;;
82628;SDS011;72298;49.640;20.652;2023-10-08T07:46:48;3.40;;;2.55;;
82628;SDS011;72298;49.640;20.652;2023-10-08T07:49:15;5.82;;;1.52;;
82628;SDS011;72298;49.640;20.652;2023-10-08T07:51:42;4.97;;;1.60;;
82628;SDS011;72298;49.640;20.652;2023-10-08T07:54:16;4.18;;;1.80;;
82628;SDS011;72298;49.640;20.652;2023-10-08T07:56:47;2.33;;;1.23;;
82628;SDS011;72298;49.640;20.652;2023-10-08T07:59:14;5.03;;;1.60;;
82628;SDS011;72298;49.640;20.652;2023-10-08T08:01:41;4.03;;;1.60;;
82628;SDS011;72298;49.640;20.652;2023-10-08T08:04:11;3.40;;;1.52;;
82628;SDS011;72298;49.640;20.652;2023-10-08T08:06:50;3.45;;;1.17;;
82628;SDS011;72298;49.640;20.652;2023-10-08T08:09:16;3.63;;;1.40;;
82628;SDS011;72298;49.640;20.652;2023-10-08T08:11:48;3.08;;;1.23;;
82628;SDS011;72298;49.640;20.652;2023-10-08T08:14:14;3.33;;;1.55;;
82628;SDS011;72298;49.640;20.652;2023-10-08T08:16:42;1.95;;;1.20;;
82628;SDS011;72298;49.640;20.652;2023-10-08T08:19:14;5.45;;;1.33;;
82628;SDS011;72298;49.640;20.652;2023-10-08T08:21:49;3.47;;;1.35;;
82628;SDS011;72298;49.640;20.652;2023-10-08T08:24:19;8.25;;;1.70;;
82628;SDS011;72298;49.640;20.652;2023-10-08T08:26:57;4.10;;;1.70;;
82628;SDS011;72298;49.640;20.652;2023-10-08T08:29:55;2.42;;;1.52;;
82628;SDS011;72298;49.640;20.652;2023-10-08T08:32:21;3.75;;;1.63;;
82628;SDS011;72298;49.640;20.652;2023-10-08T08:34:48;5.72;;;2.05;;
82628;SDS011;72298;49.640;20.652;2023-10-08T08:37:16;4.10;;;1.83;;
82628;SDS011;72298;49.640;20.652;2023-10-08T08:39:42;5.60;;;2.13;;
82628;SDS011;72298;49.640;20.652;2023-10-08T08:42:07;17.27;;;7.22;;
82628;SDS011;72298;49.640;20.652;2023-10-08T08:44:37;9.35;;;3.20;;
82628;SDS011;72298;49.640;20.652;2023-10-08T08:47:11;70.82;;;18.55;;
82628;SDS011;72298;49.640;20.652;2023-10-08T08:49:40;25.30;;;8.73;;
82628;SDS011;72298;49.640;20.652;2023-10-08T08:52:08;40.00;;;14.52;;
82628;SDS011;72298;49.640;20.652;2023-10-08T08:54:34;11.70;;;4.57;;
82628;SDS011;72298;49.640;20.652;2023-10-08T08:57:02;13.77;;;6.50;;
82628;SDS011;72298;49.640;20.652;2023-10-08T08:59:38;7.13;;;3.90;;
82628;SDS011;72298;49.640;20.652;2023-10-08T09:02:09;7.95;;;2.97;;
82628;SDS011;72298;49.640;20.652;2023-10-08T09:04:39;4.78;;;2.60;;
82628;SDS011;72298;49.640;20.652;2023-10-08T09:07:05;4.28;;;2.63;;
82628;SDS011;72298;49.640;20.652;2023-10-08T09:09:31;6.50;;;3.13;;
82628;SDS011;72298;49.640;20.652;2023-10-08T09:11:57;6.38;;;2.70;;
82628;SDS011;72298;49.640;20.652;2023-10-08T09:14:24;6.90;;;2.40;;
82628;SDS011;72298;49.640;20.652;2023-10-08T09:16:57;5.97;;;2.72;;
82628;SDS011;72298;49.640;20.652;2023-10-08T09:19:24;18.75;;;6.03;;
82628;SDS011;72298;49.640;20.652;2023-10-08T09:24:30;7.90;;;3.30;;
82628;SDS011;72298;49.640;20.652;2023-10-08T09:26:59;5.90;;;2.30;;
82628;SDS011;72298;49.640;20.652;2023-10-08T09:29:26;4.97;;;2.20;;
82628;SDS011;72298;49.640;20.652;2023-10-08T09:31:53;5.90;;;2.60;;
82628;SDS011;72298;49.640;20.652;2023-10-08T09:34:21;6.88;;;2.88;;
82628;SDS011;72298;49.640;20.652;2023-10-08T09:36:48;3.85;;;2.17;;
82628;SDS011;72298;49.640;20.652;2023-10-08T09:39:14;7.80;;;2.78;;
82628;SDS011;72298;49.640;20.652;2023-10-08T09:41:49;4.10;;;2.30;;
82628;SDS011;72298;49.640;20.652;2023-10-08T09:44:16;8.55;;;2.45;;
82628;SDS011;72298;49.640;20.652;2023-10-08T09:46:44;4.85;;;2.80;;
82628;SDS011;72298;49.640;20.652;2023-10-08T09:49:13;5.70;;;2.58;;
82628;SDS011;72298;49.640;20.652;2023-10-08T09:51:41;4.28;;;2.60;;
82628;SDS011;72298;49.640;20.652;2023-10-08T09:54:15;4.20;;;2.63;;
82628;SDS011;72298;49.640;20.652;2023-10-08T09:56:45;7.03;;;2.60;;
82628;SDS011;72298;49.640;20.652;2023-10-08T09:59:11;4.20;;;2.65;;
82628;SDS011;72298;49.640;20.652;2023-10-08T10:01:40;4.05;;;2.70;;
82628;SDS011;72298;49.640;20.652;2023-10-08T10:04:10;5.43;;;2.30;;
82628;SDS011;72298;49.640;20.652;2023-10-08T10:06:37;4.53;;;2.40;;
82628;SDS011;72298;49.640;20.652;2023-10-08T10:09:04;5.85;;;2.40;;
82628;SDS011;72298;49.640;20.652;2023-10-08T10:11:33;4.38;;;2.22;;
82628;SDS011;72298;49.640;20.652;2023-10-08T10:13:59;3.22;;;1.70;;
82628;SDS011;72298;49.640;20.652;2023-10-08T10:16:25;3.20;;;1.88;;
82628;SDS011;72298;49.640;20.652;2023-10-08T10:18:54;3.80;;;2.05;;
82628;SDS011;72298;49.640;20.652;2023-10-08T10:21:25;22.67;;;6.68;;
82628;SDS011;72298;49.640;20.652;2023-10-08T10:23:52;13.38;;;4.47;;
82628;SDS011;72298;49.640;20.652;2023-10-08T10:26:35;12.25;;;4.28;;
82628;SDS011;72298;49.640;20.652;2023-10-08T10:31:44;6.20;;;3.17;;
82628;SDS011;72298;49.640;20.652;2023-10-08T10:34:18;6.82;;;2.53;;
82628;SDS011;72298;49.640;20.652;2023-10-08T10:36:57;7.30;;;2.40;;
82628;SDS011;72298;49.640;20.652;2023-10-08T10:39:56;5.68;;;2.67;;
82628;SDS011;72298;49.640;20.652;2023-10-08T10:42:26;3.53;;;2.10;;
82628;SDS011;72298;49.640;20.652;2023-10-08T10:44:54;4.28;;;2.38;;
82628;SDS011;72298;49.640;20.652;2023-10-08T10:49:48;4.00;;;1.90;;
82628;SDS011;72298;49.640;20.652;2023-10-08T10:52:40;3.58;;;2.03;;
82628;SDS011;72298;49.640;20.652;2023-10-08T10:55:18;5.47;;;2.72;;
82628;SDS011;72298;49.640;20.652;2023-10-08T10:57:46;5.68;;;2.42;;
82628;SDS011;72298;49.640;20.652;2023-10-08T11:00:29;4.65;;;2.03;;
82628;SDS011;72298;49.640;20.652;2023-10-08T11:02:56;5.60;;;2.78;;
82628;SDS011;72298;49.640;20.652;2023-10-08T11:05:27;3.33;;;1.83;;
82628;SDS011;72298;49.640;20.652;2023-10-08T11:07:54;3.13;;;2.10;;
82628;SDS011;72298;49.640;20.652;2023-10-08T11:10:33;4.57;;;2.35;;
82628;SDS011;72298;49.640;20.652;2023-10-08T11:13:03;2.70;;;1.83;;
82628;SDS011;72298;49.640;20.652;2023-10-08T11:18:12;3.65;;;2.10;;
82628;SDS011;72298;49.640;20.652;2023-10-08T11:20:40;5.25;;;2.10;;
82628;SDS011;72298;49.640;20.652;2023-10-08T11:23:09;4.78;;;2.30;;
82628;SDS011;72298;49.640;20.652;2023-10-08T11:25:57;2.75;;;2.10;;
82628;SDS011;72298;49.640;20.652;2023-10-08T11:28:40;4.00;;;2.70;;
82628;SDS011;72298;49.640;20.652;2023-10-08T11:31:12;3.22;;;1.70;;
82628;SDS011;72298;49.640;20.652;2023-10-08T11:33:40;4.90;;;1.92;;
82628;SDS011;72298;49.640;20.652;2023-10-08T11:36:07;3.83;;;2.13;;
82628;SDS011;72298;49.640;20.652;2023-10-08T11:38:44;3.53;;;2.00;;
82628;SDS011;72298;49.640;20.652;2023-10-08T11:41:17;4.13;;;2.17;;
82628;SDS011;72298;49.640;20.652;2023-10-08T11:46:13;3.80;;;1.90;;
82628;SDS011;72298;49.640;20.652;2023-10-08T11:48:43;2.63;;;1.75;;
82628;SDS011;72298;49.640;20.652;2023-10-08T11:51:12;3.63;;;1.95;;
82628;SDS011;72298;49.640;20.652;2023-10-08T11:53:42;4.15;;;1.70;;
82628;SDS011;72298;49.640;20.652;2023-10-08T11:56:11;3.15;;;1.55;;
82628;SDS011;72298;49.640;20.652;2023-10-08T11:58:39;3.22;;;1.50;;
82628;SDS011;72298;49.640;20.652;2023-10-08T12:01:10;5.85;;;1.50;;
82628;SDS011;72298;49.640;20.652;2023-10-08T12:03:50;3.85;;;2.03;;
82628;SDS011;72298;49.640;20.652;2023-10-08T12:06:16;3.20;;;1.60;;
82628;SDS011;72298;49.640;20.652;2023-10-08T12:08:47;3.70;;;2.05;;
82628;SDS011;72298;49.640;20.652;2023-10-08T12:11:18;3.47;;;1.70;;
82628;SDS011;72298;49.640;20.652;2023-10-08T12:13:44;5.25;;;1.80;;
82628;SDS011;72298;49.640;20.652;2023-10-08T12:16:11;2.65;;;1.95;;
82628;SDS011;72298;49.640;20.652;2023-10-08T12:18:43;5.82;;;1.98;;
82628;SDS011;72298;49.640;20.652;2023-10-08T12:21:19;3.60;;;1.90;;
82628;SDS011;72298;49.640;20.652;2023-10-08T12:23:46;2.13;;;1.55;;
82628;SDS011;72298;49.640;20.652;2023-10-08T12:26:13;2.45;;;1.70;;
82628;SDS011;72298;49.640;20.652;2023-10-08T12:28:43;2.65;;;1.65;;
82628;SDS011;72298;49.640;20.652;2023-10-08T12:31:19;4.35;;;1.80;;
82628;SDS011;72298;49.640;20.652;2023-10-08T12:33:49;4.05;;;1.90;;
82628;SDS011;72298;49.640;20.652;2023-10-08T12:36:19;3.00;;;1.80;;
82628;SDS011;72298;49.640;20.652;2023-10-08T12:38:48;2.58;;;1.60;;
82628;SDS011;72298;49.640;20.652;2023-10-08T12:41:15;2.95;;;1.60;;
82628;SDS011;72298;49.640;20.652;2023-10-08T12:43:44;2.67;;;1.67;;
82628;SDS011;72298;49.640;20.652;2023-10-08T12:46:13;9.93;;;1.80;;
82628;SDS011;72298;49.640;20.652;2023-10-08T12:48:44;4.28;;;1.50;;
82628;SDS011;72298;49.640;20.652;2023-10-08T12:51:13;2.05;;;1.20;;
82628;SDS011;72298;49.640;20.652;2023-10-08T12:53:39;2.95;;;1.63;;
82628;SDS011;72298;49.640;20.652;2023-10-08T12:56:06;2.60;;;1.55;;
82628;SDS011;72298;49.640;20.652;2023-10-08T12:58:40;4.70;;;1.50;;
82628;SDS011;72298;49.640;20.652;2023-10-08T13:01:09;3.70;;;1.73;;
82628;SDS011;72298;49.640;20.652;2023-10-08T13:03:39;2.47;;;1.50;;
82628;SDS011;72298;49.640;20.652;2023-10-08T13:06:12;3.78;;;1.58;;
82628;SDS011;72298;49.640;20.652;2023-10-08T13:08:56;2.53;;;1.50;;
82628;SDS011;72298;49.640;20.652;2023-10-08T13:11:28;3.08;;;1.35;;
82628;SDS011;72298;49.640;20.652;2023-10-08T13:13:59;1.50;;;1.25;;
82628;SDS011;72298;49.640;20.652;2023-10-08T13:16:25;1.73;;;1.35;;
82628;SDS011;72298;49.640;20.652;2023-10-08T13:18:56;2.58;;;1.20;;
82628;SDS011;72298;49.640;20.652;2023-10-08T13:21:24;1.95;;;1.10;;
82628;SDS011;72298;49.640;20.652;2023-10-08T13:23:54;4.00;;;1.48;;
82628;SDS011;72298;49.640;20.652;2023-10-08T13:26:28;2.42;;;1.35;;
82628;SDS011;72298;49.640;20.652;2023-10-08T13:28:58;2.45;;;1.30;;
82628;SDS011;72298;49.640;20.652;2023-10-08T13:31:24;4.00;;;1.40;;
82628;SDS011;72298;49.640;20.652;2023-10-08T13:33:50;2.08;;;1.20;;
82628;SDS011;72298;49.640;20.652;2023-10-08T13:38:43;4.00;;;1.60;;
82628;SDS011;72298;49.640;20.652;2023-10-08T13:41:11;2.83;;;1.30;;
82628;SDS011;72298;49.640;20.652;2023-10-08T13:43:40;2.55;;;1.35;;
82628;SDS011;72298;49.640;20.652;2023-10-08T13:46:11;2.15;;;1.17;;
82628;SDS011;72298;49.640;20.652;2023-10-08T13:48:42;3.50;;;1.45;;
82628;SDS011;72298;49.640;20.652;2023-10-08T13:51:22;2.72;;;1.25;;
82628;SDS011;72298;49.640;20.652;2023-10-08T13:53:51;2.42;;;1.45;;
82628;SDS011;72298;49.640;20.652;2023-10-08T13:56:25;2.47;;;1.50;;
82628;SDS011;72298;49.640;20.652;2023-10-08T13:59:00;3.28;;;1.30;;
82628;SDS011;72298;49.640;20.652;2023-10-08T14:01:38;4.13;;;1.67;;
82628;SDS011;72298;49.640;20.652;2023-10-08T14:04:08;3.22;;;1.40;;
82628;SDS011;72298;49.640;20.652;2023-10-08T14:06:34;2.97;;;1.42;;
82628;SDS011;72298;49.640;20.652;2023-10-08T14:09:02;4.07;;;1.45;;
82628;SDS011;72298;49.640;20.652;2023-10-08T14:11:34;2.45;;;1.73;;
82628;SDS011;72298;49.640;20.652;2023-10-08T14:14:00;1.52;;;1.10;;
82628;SDS011;72298;49.640;20.652;2023-10-08T14:16:27;2.45;;;1.30;;
82628;SDS011;72298;49.640;20.652;2023-10-08T14:18:57;10.27;;;1.50;;
82628;SDS011;72298;49.640;20.652;2023-10-08T14:21:25;2.13;;;1.13;;
82628;SDS011;72298;49.640;20.652;2023-10-08T14:23:58;2.58;;;1.15;;
82628;SDS011;72298;49.640;20.652;2023-10-08T14:26:28;3.10;;;1.30;;
82628;SDS011;72298;49.640;20.652;2023-10-08T14:29:00;1.85;;;1.20;;
82628;SDS011;72298;49.640;20.652;2023-10-08T14:31:33;2.15;;;1.10;;
82628;SDS011;72298;49.640;20.652;2023-10-08T14:33:59;4.70;;;1.35;;
82628;SDS011;72298;49.640;20.652;2023-10-08T14:36:44;3.58;;;1.20;;
82628;SDS011;72298;49.640;20.652;2023-10-08T14:39:29;4.93;;;1.38;;
82628;SDS011;72298;49.640;20.652;2023-10-08T14:42:14;2.17;;;1.23;;
82628;SDS011;72298;49.640;20.652;2023-10-08T14:44:59;2.88;;;1.38;;
82628;SDS011;72298;49.640;20.652;2023-10-08T14:47:25;3.75;;;1.83;;
82628;SDS011;72298;49.640;20.652;2023-10-08T14:49:51;1.80;;;1.30;;
82628;SDS011;72298;49.640;20.652;2023-10-08T14:52:17;2.35;;;1.17;;
82628;SDS011;72298;49.640;20.652;2023-10-08T14:54:43;8.75;;;2.30;;
82628;SDS011;72298;49.640;20.652;2023-10-08T14:57:10;2.88;;;1.33;;
82628;SDS011;72298;49.640;20.652;2023-10-08T14:59:40;3.10;;;1.33;;
82628;SDS011;72298;49.640;20.652;2023-10-08T15:02:06;2.72;;;1.10;;
82628;SDS011;72298;49.640;20.652;2023-10-08T15:04:32;2.40;;;1.27;;
82628;SDS011;72298;49.640;20.652;2023-10-08T15:07:01;2.38;;;1.23;;
82628;SDS011;72298;49.640;20.652;2023-10-08T15:09:27;3.08;;;1.40;;
82628;SDS011;72298;49.640;20.652;2023-10-08T15:11:53;2.75;;;1.50;;
82628;SDS011;72298;49.640;20.652;2023-10-08T15:14:19;3.15;;;1.10;;
82628;SDS011;72298;49.640;20.652;2023-10-08T15:16:47;2.75;;;1.48;;
82628;SDS011;72298;49.640;20.652;2023-10-08T15:19:18;2.65;;;1.42;;
82628;SDS011;72298;49.640;20.652;2023-10-08T15:21:45;3.97;;;1.58;;
82628;SDS011;72298;49.640;20.652;2023-10-08T15:24:18;4.40;;;1.23;;
82628;SDS011;72298;49.640;20.652;2023-10-08T15:26:47;2.63;;;1.50;;
82628;SDS011;72298;49.640;20.652;2023-10-08T15:29:13;4.97;;;1.85;;
82628;SDS011;72298;49.640;20.652;2023-10-08T15:31:40;2.60;;;1.45;;